createdAt,value
2019-03-05T00:00:20.478Z,67.94
2019-03-05T00:02:49.780Z,68.02
2019-03-05T00:05:19.048Z,69.10
2019-03-05T00:07:48.250Z,68.88
2019-03-05T00:10:18.996Z,69.14
2019-03-05T00:12:48.211Z,69.83
2019-03-05T00:15:19.624Z,71.12
2019-03-05T00:17:48.798Z,70.56
2019-03-05T00:20:18.041Z,70.66
2019-03-05T00:22:47.245Z,71.32
2019-03-05T00:25:18.365Z,72.08
2019-03-05T00:28:20.533Z,73.19
2019-03-05T00:31:14.217Z,73.47
2019-03-05T00:34:03.290Z,73.04
2019-03-05T00:36:39.014Z,72.04
2019-03-05T00:39:40.120Z,71.82
2019-03-05T00:42:46.095Z,73.10
2019-03-05T00:46:04.975Z,72.95
2019-03-05T00:49:10.750Z,74.03
2019-03-05T00:52:20.699Z,72.21
2019-03-05T00:55:34.542Z,73.10
2019-03-05T00:58:34.064Z,73.25
2019-03-05T01:01:37.452Z,72.60
2019-03-05T01:04:44.780Z,72.36
2019-03-05T01:07:14.290Z,72.32
2019-03-05T01:09:43.485Z,73.66
2019-03-05T01:12:14.323Z,73.90
2019-03-05T01:14:43.710Z,73.51
2019-03-05T01:17:12.908Z,73.17
2019-03-05T01:19:42.131Z,73.44
2019-03-05T01:22:11.398Z,73.47
2019-03-05T01:24:40.620Z,73.22
2019-03-05T01:27:09.800Z,71.76
2019-03-05T01:29:39.024Z,72.31
2019-03-05T01:32:24.305Z,72.23
2019-03-05T01:35:11.214Z,73.06
2019-03-05T01:37:40.405Z,72.75
2019-03-05T01:40:28.657Z,72.30
2019-03-05T01:42:57.838Z,72.15
2019-03-05T01:45:27.068Z,71.59
2019-03-05T01:47:56.269Z,71.73
2019-03-05T01:50:25.467Z,71.83
2019-03-05T01:52:54.670Z,70.66
2019-03-05T01:55:23.845Z,70.50
2019-03-05T01:57:53.058Z,70.38
2019-03-05T02:00:22.338Z,70.71
2019-03-05T02:02:51.657Z,69.86
2019-03-05T02:05:20.893Z,69.49
2019-03-05T02:07:50.484Z,69.37
2019-03-05T02:10:22.607Z,69.27
2019-03-05T02:12:51.796Z,69.50
2019-03-05T02:15:21.106Z,69.43
2019-03-05T02:17:50.295Z,68.96
2019-03-05T02:20:38.607Z,68.84
2019-03-05T02:23:38.108Z,69.08
2019-03-05T02:26:49.002Z,68.70
2019-03-05T02:29:25.622Z,68.32
2019-03-05T02:32:51.038Z,67.98
2019-03-05T02:35:54.647Z,67.56
2019-03-05T02:39:15.281Z,68.02
2019-03-05T02:41:50.687Z,68.12
2019-03-05T02:45:03.519Z,67.93
2019-03-05T02:48:07.848Z,67.93
2019-03-05T02:51:02.922Z,68.11
2019-03-05T02:54:17.835Z,67.54
2019-03-05T02:57:08.389Z,67.52
2019-03-05T02:59:37.620Z,67.50
2019-03-05T03:02:30.208Z,67.57
2019-03-05T03:05:21.578Z,67.73
2019-03-05T03:07:50.770Z,67.60
2019-03-05T03:10:22.058Z,68.00
2019-03-05T03:12:51.361Z,67.93
2019-03-05T03:15:20.774Z,67.75
2019-03-05T03:17:50.554Z,67.74
2019-03-05T03:20:23.709Z,67.08
2019-03-05T03:22:52.922Z,66.99
2019-03-05T03:25:23.555Z,66.82
2019-03-05T03:27:52.951Z,66.63
2019-03-05T03:30:23.823Z,66.59
2019-03-05T03:32:53.021Z,66.71
2019-03-05T03:35:22.222Z,66.72
2019-03-05T03:37:51.393Z,66.78
2019-03-05T03:40:22.213Z,66.89
2019-03-05T03:42:51.422Z,66.96
2019-03-05T03:45:22.564Z,67.04
2019-03-05T03:47:51.741Z,67.21
2019-03-05T03:50:20.930Z,67.10
2019-03-05T03:52:50.115Z,67.15
2019-03-05T03:55:19.387Z,67.05
2019-03-05T03:57:48.662Z,67.12
2019-03-05T04:00:22.561Z,67.21
2019-03-05T04:02:51.990Z,67.23
2019-03-05T04:05:21.225Z,67.10
2019-03-05T04:07:50.392Z,67.16
2019-03-05T04:10:19.641Z,67.32
2019-03-05T04:12:48.845Z,67.75
2019-03-05T04:15:21.699Z,68.61
2019-03-05T04:17:50.877Z,68.36
2019-03-05T04:20:39.785Z,69.99
2019-03-05T04:23:08.945Z,69.26
2019-03-05T04:25:38.167Z,69.62
2019-03-05T04:28:07.371Z,68.85
2019-03-05T04:30:36.566Z,69.53
2019-03-05T04:33:05.758Z,68.99
2019-03-05T04:35:34.938Z,68.91
2019-03-05T04:38:04.431Z,69.02
2019-03-05T04:40:33.639Z,68.81
2019-03-05T04:43:02.807Z,69.11
2019-03-05T04:45:55.905Z,69.33
2019-03-05T04:48:25.083Z,69.74
2019-03-05T04:50:57.717Z,68.96
2019-03-05T04:53:26.931Z,68.77
2019-03-05T04:55:56.118Z,69.45
2019-03-05T04:58:25.276Z,69.45
2019-03-05T05:00:54.466Z,69.32
2019-03-05T05:03:23.673Z,69.26
2019-03-05T05:05:52.870Z,69.58
2019-03-05T05:08:22.069Z,69.43
2019-03-05T05:10:51.289Z,69.64
2019-03-05T05:13:20.524Z,69.39
2019-03-05T05:15:49.713Z,69.44
2019-03-05T05:18:18.958Z,69.17
2019-03-05T05:20:48.152Z,69.98
2019-03-05T05:23:17.374Z,69.87
2019-03-05T05:25:46.589Z,70.15
2019-03-05T05:28:15.789Z,69.81
2019-03-05T05:30:45.004Z,70.08
2019-03-05T05:33:14.198Z,70.29
2019-03-05T05:35:43.385Z,70.16
2019-03-05T05:38:12.570Z,70.11
2019-03-05T05:40:43.689Z,70.22
2019-03-05T05:43:15.643Z,70.18
2019-03-05T05:45:49.213Z,69.81
2019-03-05T05:48:18.519Z,69.95
2019-03-05T05:50:47.693Z,69.66
2019-03-05T05:53:16.974Z,69.97
2019-03-05T05:55:46.162Z,70.34
2019-03-05T05:58:15.355Z,70.04
2019-03-05T06:00:47.063Z,70.27
2019-03-05T06:03:16.303Z,70.00
2019-03-05T06:05:45.354Z,70.16
2019-03-05T06:08:14.550Z,70.04
2019-03-05T06:10:43.797Z,69.61
2019-03-05T06:13:13.002Z,69.47
2019-03-05T06:15:42.188Z,69.84
2019-03-05T06:18:11.397Z,69.11
2019-03-05T06:20:42.547Z,69.22
2019-03-05T06:23:11.518Z,69.35
2019-03-05T06:25:40.717Z,69.23
2019-03-05T06:28:09.934Z,69.39
2019-03-05T06:30:39.295Z,69.23
2019-03-05T06:33:08.501Z,69.26
2019-03-05T06:35:37.723Z,69.16
2019-03-05T06:38:06.928Z,69.02
2019-03-05T06:40:36.149Z,68.90
2019-03-05T06:43:05.447Z,68.67
2019-03-05T06:45:34.664Z,68.28
2019-03-05T06:48:03.967Z,67.79
2019-03-05T06:50:33.217Z,67.40
2019-03-05T06:53:02.429Z,66.28
2019-03-05T06:55:31.633Z,65.36
2019-03-05T06:58:00.838Z,64.93
2019-03-05T07:00:34.867Z,64.91
2019-03-05T07:03:04.356Z,64.30
2019-03-05T07:06:08.843Z,61.33
2019-03-05T07:08:40.782Z,60.80
2019-03-05T07:11:50.117Z,61.54
2019-03-05T07:14:31.393Z,62.65
2019-03-05T07:17:28.164Z,63.85
2019-03-05T07:20:56.255Z,64.40
2019-03-05T07:23:48.563Z,64.86
2019-03-05T07:26:18.024Z,65.45
2019-03-05T07:28:47.222Z,66.37
2019-03-05T07:31:16.422Z,66.59
2019-03-05T07:33:45.621Z,66.75
2019-03-05T07:36:15.335Z,66.84
2019-03-05T07:38:44.509Z,66.69
2019-03-05T07:41:13.748Z,66.55
2019-03-05T07:43:42.940Z,66.19
2019-03-05T07:46:12.176Z,66.07
2019-03-05T07:48:41.384Z,65.76
2019-03-05T07:51:10.601Z,66.28
2019-03-05T07:53:39.807Z,65.93
2019-03-05T07:56:08.990Z,65.80
2019-03-05T07:58:38.265Z,66.58
2019-03-05T08:01:07.464Z,66.75
2019-03-05T08:03:36.639Z,67.87
2019-03-05T08:06:05.838Z,68.38
2019-03-05T08:09:10.635Z,67.78
2019-03-05T08:11:39.919Z,67.06
2019-03-05T08:14:51.363Z,66.31
2019-03-05T08:17:20.629Z,65.68
2019-03-05T08:19:49.810Z,65.36
2019-03-05T08:22:19.002Z,64.85
2019-03-05T08:24:48.149Z,65.17
2019-03-05T08:27:17.331Z,64.00
2019-03-05T08:29:46.573Z,63.62
2019-03-05T08:32:15.762Z,63.00
2019-03-05T08:34:44.954Z,63.38
2019-03-05T08:37:14.126Z,65.10
2019-03-05T08:39:43.330Z,65.69
2019-03-05T08:42:12.510Z,65.87
2019-03-05T08:44:49.899Z,66.63
2019-03-05T08:47:12.634Z,66.93
2019-03-05T08:49:41.875Z,68.07
2019-03-05T08:52:11.462Z,67.40
2019-03-05T08:54:40.648Z,68.39
2019-03-05T08:57:09.960Z,67.54
2019-03-05T08:59:39.190Z,67.73
2019-03-05T09:02:08.458Z,68.55
2019-03-05T09:04:37.671Z,68.43
2019-03-05T09:07:06.872Z,69.08
2019-03-05T09:09:36.092Z,68.74
2019-03-05T09:12:05.721Z,69.22
2019-03-05T09:14:34.920Z,69.45
2019-03-05T09:17:04.723Z,68.98
2019-03-05T09:19:33.949Z,64.39
2019-03-05T09:22:03.137Z,58.11
2019-03-05T09:24:32.345Z,53.62
2019-03-05T09:27:01.527Z,51.50
2019-03-05T09:29:30.749Z,50.53
2019-03-05T09:31:59.924Z,49.14
2019-03-05T09:34:29.107Z,48.21
2019-03-05T09:36:58.315Z,49.04
2019-03-05T09:39:27.497Z,50.18
2019-03-05T09:41:56.718Z,50.13
2019-03-05T09:44:25.906Z,52.45
2019-03-05T09:46:55.133Z,54.23
2019-03-05T09:49:24.308Z,55.80
2019-03-05T09:51:53.474Z,57.73
2019-03-05T09:54:22.677Z,57.84
2019-03-05T09:56:51.920Z,59.18
2019-03-05T09:59:21.164Z,59.49
2019-03-05T10:01:53.965Z,59.32
2019-03-05T10:04:23.184Z,57.81
2019-03-05T10:06:52.492Z,57.50
2019-03-05T10:09:21.686Z,56.13
2019-03-05T10:11:56.594Z,54.59
2019-03-05T10:14:21.921Z,55.24
2019-03-05T10:16:51.159Z,55.86
2019-03-05T10:19:20.340Z,57.48
2019-03-05T10:21:49.547Z,58.22
2019-03-05T10:24:18.751Z,59.27
2019-03-05T10:26:47.944Z,58.43
2019-03-05T10:29:17.157Z,57.98
2019-03-05T10:31:46.333Z,56.87
2019-03-05T10:34:15.573Z,57.35
2019-03-05T10:36:44.767Z,56.23
2019-03-05T10:39:30.963Z,56.64
2019-03-05T10:42:00.720Z,56.38
2019-03-05T10:44:29.953Z,56.61
2019-03-05T10:46:59.161Z,56.54
2019-03-05T10:49:28.344Z,56.47
2019-03-05T10:51:58.903Z,57.08
2019-03-05T10:54:28.301Z,56.68
2019-03-05T10:56:57.601Z,55.77
2019-03-05T10:59:26.892Z,54.40
2019-03-05T11:01:56.172Z,53.00
2019-03-05T11:04:26.056Z,52.26
2019-03-05T11:06:55.261Z,53.40
2019-03-05T11:09:24.462Z,53.54
2019-03-05T11:11:53.685Z,54.66
2019-03-05T11:14:22.945Z,54.85
2019-03-05T11:16:52.478Z,52.84
2019-03-05T11:19:21.698Z,53.23
2019-03-05T11:21:50.892Z,52.88
2019-03-05T11:24:20.090Z,53.11
2019-03-05T11:26:49.306Z,53.11
2019-03-05T11:29:18.528Z,53.67
2019-03-05T11:31:47.774Z,53.04
2019-03-05T11:34:16.992Z,52.52
2019-03-05T11:36:46.393Z,52.73
2019-03-05T11:39:15.682Z,52.98
2019-03-05T11:41:44.881Z,51.73
2019-03-05T11:44:14.075Z,51.34
2019-03-05T11:46:43.275Z,52.80
2019-03-05T11:49:12.549Z,52.54
2019-03-05T11:51:41.725Z,53.41
2019-03-05T11:54:10.954Z,52.51
2019-03-05T11:56:40.171Z,52.87
2019-03-05T11:59:09.533Z,53.05
2019-03-05T12:01:42.154Z,53.47
2019-03-05T12:04:11.403Z,54.17
2019-03-05T12:06:40.605Z,54.06
2019-03-05T12:09:09.892Z,52.64
2019-03-05T12:11:39.091Z,54.46
2019-03-05T12:14:08.326Z,54.42
2019-03-05T12:16:37.550Z,54.39
2019-03-05T12:19:06.836Z,54.09
2019-03-05T12:21:36.064Z,53.77
2019-03-05T12:24:05.262Z,53.79
2019-03-05T12:26:34.462Z,53.21
2019-03-05T12:29:03.645Z,52.63
2019-03-05T12:31:32.884Z,52.53
2019-03-05T12:34:02.147Z,52.90
2019-03-05T12:36:31.342Z,52.33
2019-03-05T12:39:00.534Z,51.71
2019-03-05T12:41:29.718Z,52.21
2019-03-05T12:43:58.928Z,52.64
2019-03-05T12:46:28.124Z,52.13
2019-03-05T12:48:57.344Z,51.82
2019-03-05T12:51:26.643Z,50.94
2019-03-05T12:53:55.897Z,51.56
2019-03-05T12:56:25.114Z,51.72
2019-03-05T12:58:54.437Z,52.83
2019-03-05T13:01:23.688Z,52.97
2019-03-05T13:03:52.933Z,53.46
2019-03-05T13:06:22.143Z,53.24
2019-03-05T13:08:51.337Z,53.74
2019-03-05T13:11:20.533Z,53.44
2019-03-05T13:13:52.774Z,53.77
2019-03-05T13:16:20.749Z,53.78
2019-03-05T13:18:49.937Z,53.64
2019-03-05T13:21:19.170Z,52.43
2019-03-05T13:23:48.531Z,52.40
2019-03-05T13:26:17.729Z,52.16
2019-03-05T13:28:46.942Z,50.88
2019-03-05T13:31:16.129Z,52.36
2019-03-05T13:33:45.323Z,52.36
2019-03-05T13:36:16.484Z,52.55
2019-03-05T13:38:46.427Z,52.74
2019-03-05T13:41:16.876Z,51.75
2019-03-05T13:43:46.309Z,52.47
2019-03-05T13:46:15.494Z,52.53
2019-03-05T13:49:28.696Z,52.76
2019-03-05T13:52:38.917Z,52.63
2019-03-05T13:55:23.586Z,51.59
2019-03-05T13:58:31.624Z,52.02
2019-03-05T14:01:01.098Z,52.07
2019-03-05T14:03:41.126Z,51.26
2019-03-05T14:06:47.987Z,51.46
2019-03-05T14:09:16.307Z,51.36
2019-03-05T14:11:46.930Z,50.31
2019-03-05T14:14:36.139Z,51.07
2019-03-05T14:17:34.949Z,50.38
2019-03-05T14:20:05.310Z,50.62
2019-03-05T14:22:34.531Z,50.42
2019-03-05T14:25:04.240Z,50.34
2019-03-05T14:27:33.439Z,49.39
2019-03-05T14:30:03.269Z,50.26
2019-03-05T14:32:32.602Z,49.70
2019-03-05T14:35:03.559Z,49.45
2019-03-05T14:37:33.383Z,49.68
2019-03-05T14:40:22.896Z,50.18
2019-03-05T14:42:34.019Z,49.43
2019-03-05T14:45:03.382Z,48.62
2019-03-05T14:47:32.651Z,49.53
2019-03-05T14:50:01.980Z,48.65
2019-03-05T14:52:31.224Z,48.70
2019-03-05T14:55:00.631Z,48.25
2019-03-05T14:57:29.849Z,48.33
2019-03-05T14:59:59.418Z,46.12
2019-03-05T15:02:28.647Z,46.51
2019-03-05T15:04:57.888Z,47.43
2019-03-05T15:07:27.097Z,47.10
2019-03-05T15:09:56.297Z,46.91
2019-03-05T15:12:25.530Z,47.35
2019-03-05T15:14:54.767Z,47.49
2019-03-05T15:17:24.029Z,47.51
2019-03-05T15:19:53.263Z,47.72
2019-03-05T15:22:22.471Z,47.13
2019-03-05T15:24:52.028Z,46.47
2019-03-05T15:27:21.292Z,46.84
2019-03-05T15:29:50.738Z,47.13
2019-03-05T15:32:20.245Z,47.65
2019-03-05T15:34:49.578Z,46.79
2019-03-05T15:37:18.889Z,48.25
2019-03-05T15:39:48.055Z,47.96
2019-03-05T15:42:17.397Z,47.47
2019-03-05T15:44:46.703Z,47.57
2019-03-05T15:47:16.062Z,48.39
2019-03-05T15:49:45.293Z,48.13
2019-03-05T15:52:14.484Z,46.01
2019-03-05T15:54:43.706Z,47.41
2019-03-05T15:57:12.909Z,47.40
2019-03-05T15:59:42.236Z,48.00
2019-03-05T16:02:11.543Z,48.47
2019-03-05T16:04:44.028Z,48.65
2019-03-05T16:07:15.567Z,49.51
2019-03-05T16:09:45.006Z,48.94
2019-03-05T16:12:14.279Z,48.74
2019-03-05T16:14:43.606Z,49.19
2019-03-05T16:17:12.875Z,48.81
2019-03-05T16:19:42.242Z,48.85
2019-03-05T16:22:14.284Z,49.17
2019-03-05T16:24:42.490Z,50.05
2019-03-05T16:27:11.806Z,49.78
2019-03-05T16:29:41.074Z,49.92
2019-03-05T16:32:26.835Z,49.70
2019-03-05T16:35:26.232Z,49.91
2019-03-05T16:38:09.686Z,50.25
2019-03-05T16:40:57.122Z,50.60
2019-03-05T16:43:44.554Z,49.82
2019-03-05T16:46:36.074Z,50.59
2019-03-05T16:49:24.948Z,50.56
2019-03-05T16:52:22.377Z,50.45
2019-03-05T16:55:19.587Z,50.50
2019-03-05T16:58:09.951Z,50.68
2019-03-05T17:00:53.372Z,51.35
2019-03-05T17:03:47.391Z,51.81
2019-03-05T17:06:35.897Z,52.09
2019-03-05T17:09:35.183Z,51.42
2019-03-05T17:12:04.527Z,51.69
2019-03-05T17:14:33.727Z,52.02
2019-03-05T17:17:02.968Z,52.12
2019-03-05T17:19:32.587Z,52.48
2019-03-05T17:22:02.110Z,52.75
2019-03-05T17:24:31.355Z,53.07
2019-03-05T17:27:00.563Z,53.18
2019-03-05T17:29:29.808Z,52.99
2019-03-05T17:31:59.637Z,53.37
2019-03-05T17:34:29.072Z,53.92
2019-03-05T17:36:58.617Z,54.43
2019-03-05T17:39:28.147Z,54.96
2019-03-05T17:41:57.386Z,55.72
2019-03-05T17:44:26.842Z,56.14
2019-03-05T17:46:56.101Z,56.59
2019-03-05T17:49:25.294Z,56.94
2019-03-05T17:51:55.101Z,57.18
2019-03-05T17:54:24.309Z,57.51
2019-03-05T17:56:54.101Z,57.81
2019-03-05T17:59:23.376Z,58.16
2019-03-05T18:01:52.887Z,58.49
2019-03-05T18:04:22.234Z,58.78
2019-03-05T18:06:51.593Z,59.03
2019-03-05T18:09:20.916Z,59.35
2019-03-05T18:11:50.137Z,59.58
2019-03-05T18:14:19.501Z,59.99
2019-03-05T18:16:48.799Z,60.34
2019-03-05T18:19:18.181Z,60.83
2019-03-05T18:21:47.529Z,61.00
2019-03-05T18:24:16.865Z,61.38
2019-03-05T18:26:46.101Z,61.46
2019-03-05T18:29:15.613Z,61.65
2019-03-05T18:31:44.950Z,61.71
2019-03-05T18:34:14.437Z,61.87
2019-03-05T18:36:43.705Z,62.09
2019-03-05T18:39:13.498Z,62.26
2019-03-05T18:41:42.804Z,62.56
2019-03-05T18:44:12.466Z,62.60
2019-03-05T18:46:41.700Z,62.81
2019-03-05T18:49:11.198Z,62.96
2019-03-05T18:51:40.411Z,63.14
2019-03-05T18:54:09.726Z,63.27
2019-03-05T18:56:39.383Z,63.42
2019-03-05T18:59:09.236Z,63.45
2019-03-05T19:01:39.074Z,63.78
2019-03-05T19:04:08.318Z,63.79
2019-03-05T19:06:37.921Z,63.95
2019-03-05T19:09:08.089Z,64.00
2019-03-05T19:11:38.076Z,64.16
2019-03-05T19:14:07.581Z,64.23
2019-03-05T19:16:36.942Z,64.56
2019-03-05T19:19:09.828Z,64.93
2019-03-05T19:21:40.225Z,65.23
2019-03-05T19:24:10.198Z,65.45
2019-03-05T19:26:40.263Z,65.48
2019-03-05T19:29:10.384Z,65.61
2019-03-05T19:31:40.711Z,65.59
2019-03-05T19:34:11.587Z,65.74
2019-03-05T19:36:41.586Z,65.89
2019-03-05T19:39:11.255Z,66.07
2019-03-05T19:41:40.922Z,66.23
2019-03-05T19:44:11.634Z,66.03
2019-03-05T19:46:42.100Z,66.06
2019-03-05T19:49:12.156Z,66.12
2019-03-05T19:51:42.250Z,66.54
2019-03-05T19:54:12.702Z,66.58
2019-03-05T19:56:42.535Z,66.59
2019-03-05T19:59:13.236Z,66.72
2019-03-05T20:01:47.867Z,66.89
2019-03-05T20:04:18.463Z,67.04
2019-03-05T20:06:48.391Z,67.20
2019-03-05T20:09:24.189Z,67.41
2019-03-05T20:11:54.624Z,67.39
2019-03-05T20:14:24.795Z,67.25
2019-03-05T20:16:54.988Z,67.30
2019-03-05T20:19:24.965Z,67.42
2019-03-05T20:21:55.187Z,67.40
2019-03-05T20:24:25.136Z,67.63
2019-03-05T20:26:56.033Z,67.68
2019-03-05T20:29:25.961Z,68.22
2019-03-05T20:31:55.841Z,68.38
2019-03-05T20:34:25.532Z,68.24
2019-03-05T20:36:55.203Z,68.39
2019-03-05T20:39:25.430Z,68.40
2019-03-05T20:41:55.316Z,68.40
2019-03-05T20:44:25.520Z,68.34
2019-03-05T20:46:56.028Z,68.33
2019-03-05T20:49:25.828Z,68.38
2019-03-05T20:51:55.532Z,68.50
2019-03-05T20:54:26.305Z,68.54
2019-03-05T20:56:57.175Z,68.55
2019-03-05T20:59:26.605Z,68.84
2019-03-05T21:01:55.837Z,68.95
2019-03-05T21:04:25.618Z,69.11
2019-03-05T21:06:55.206Z,69.03
2019-03-05T21:09:25.250Z,68.86
2019-03-05T21:11:54.767Z,69.04
2019-03-05T21:14:24.383Z,69.26
2019-03-05T21:16:54.059Z,69.29
2019-03-05T21:19:23.990Z,69.19
2019-03-05T21:21:53.600Z,69.23
2019-03-05T21:24:23.632Z,69.51
2019-03-05T21:26:52.977Z,69.52
2019-03-05T21:29:22.354Z,69.44
2019-03-05T21:31:51.652Z,70.04
2019-03-05T21:34:20.917Z,69.94
2019-03-05T21:36:50.325Z,70.07
2019-03-05T21:39:20.290Z,70.03
2019-03-05T21:41:49.694Z,70.21
2019-03-05T21:44:18.980Z,70.17
2019-03-05T21:46:48.510Z,70.24
2019-03-05T21:49:17.900Z,70.23
2019-03-05T21:51:47.335Z,70.46
2019-03-05T21:54:16.638Z,70.39
2019-03-05T21:56:45.909Z,70.55
2019-03-05T21:59:15.189Z,70.51
2019-03-05T22:01:44.425Z,70.64
2019-03-05T22:04:13.669Z,70.76
2019-03-05T22:06:42.919Z,70.73
2019-03-05T22:09:12.159Z,70.80
2019-03-05T22:11:41.725Z,70.75
2019-03-05T22:14:10.963Z,71.05
2019-03-05T22:16:40.150Z,71.52
2019-03-05T22:19:09.352Z,71.27
2019-03-05T22:21:38.686Z,71.27
2019-03-05T22:24:08.121Z,71.31
2019-03-05T22:26:37.322Z,71.23
2019-03-05T22:29:06.524Z,71.15
2019-03-05T22:31:35.752Z,71.15
2019-03-05T22:34:04.932Z,71.61
2019-03-05T22:36:34.215Z,71.63
2019-03-05T22:39:04.595Z,71.50
2019-03-05T22:41:33.836Z,71.34
2019-03-05T22:44:03.021Z,71.27
2019-03-05T22:46:32.644Z,71.64
2019-03-05T22:49:01.920Z,71.94
2019-03-05T22:51:31.112Z,71.82
2019-03-05T22:54:00.329Z,71.86
2019-03-05T22:56:29.528Z,71.69
2019-03-05T22:58:58.737Z,71.57
2019-03-05T23:01:37.206Z,71.59
2019-03-05T23:04:06.729Z,71.61
2019-03-05T23:06:36.543Z,71.80
2019-03-05T23:11:52.199Z,71.72
2019-03-05T23:14:21.915Z,72.30
2019-03-05T23:16:51.127Z,72.17
2019-03-05T23:19:20.471Z,72.33
2019-03-05T23:21:49.676Z,72.11
2019-03-05T23:24:18.865Z,72.10
2019-03-05T23:26:48.088Z,72.16
2019-03-05T23:29:18.357Z,72.12
2019-03-05T23:31:47.688Z,72.34
2019-03-05T23:34:18.431Z,72.48
2019-03-05T23:36:47.845Z,72.22
2019-03-05T23:39:17.905Z,72.01
2019-03-05T23:41:47.094Z,72.21
2019-03-05T23:44:16.399Z,72.21
2019-03-05T23:46:45.574Z,72.22
2019-03-05T23:49:14.775Z,72.56
2019-03-05T23:51:43.975Z,72.76
2019-03-05T23:54:13.181Z,72.58
2019-03-05T23:56:42.373Z,72.50
2019-03-05T23:59:11.558Z,72.49
